Time;durP1;ratioP1;P1;durP2;ratioP2;P2;SDS_P1;SDS_P2;PMS_P1;PMS_P2;Temp;Humidity;BMP_temperature;BMP_pressure;BME280_temperature;BME280_humidity;BME280_pressure;Samples;Min_cycle;Max_cycle;Signal;HPM_P1;HPM_P2
2021/06/19 00:00:40;;;;;;;12.10;11.40;;;;;;;25.15;69.77;35942.59;5103302;28;20212;-74
2021/06/19 00:03:07;;;;;;;12.63;11.90;;;;;;;25.11;69.48;35714.03;5103221;28;20710;-73
2021/06/19 00:05:34;;;;;;;12.60;11.87;;;;;;;25.09;69.77;35636.88;5104170;28;20310;-73
2021/06/19 00:08:01;;;;;;;13.30;12.13;;;;;;;25.06;70.13;35484.88;5104247;28;20207;-74
2021/06/19 00:10:27;;;;;;;12.63;11.93;;;;;;;25.01;69.95;35300.44;5103825;28;20214;-73
2021/06/19 00:12:54;;;;;;;14.43;13.53;;;;;;;24.95;70.76;35318.00;5103705;28;20207;-73
2021/06/19 00:15:24;;;;;;;13.90;12.90;;;;;;;24.92;71.10;35321.69;5103857;27;20264;-73
2021/06/19 00:17:51;;;;;;;13.23;12.43;;;;;;;24.92;70.63;35494.78;5103951;28;20214;-74
2021/06/19 00:20:20;;;;;;;14.03;13.10;;;;;;;24.90;70.95;35520.13;5104119;28;20204;-74
2021/06/19 00:22:46;;;;;;;14.23;13.23;;;;;;;24.85;71.18;35270.03;5103885;27;20199;-74
2021/06/19 00:25:15;;;;;;;13.87;12.90;;;;;;;24.60;71.32;33739.94;5103827;28;20237;-74
2021/06/19 00:27:42;;;;;;;14.10;13.30;;;;;;;24.21;72.45;31986.22;5103846;28;20638;-73
2021/06/19 00:30:11;;;;;;;17.27;16.10;;;;;;;23.67;74.94;30151.63;5103985;28;20590;-73
2021/06/19 00:32:39;;;;;;;21.83;20.13;;;;;;;23.16;77.90;30137.97;5103347;28;20229;-73
2021/06/19 00:35:07;;;;;;;22.10;20.80;;;;;;;22.90;80.42;31965.56;5103578;28;20220;-73
2021/06/19 00:37:34;;;;;;;22.40;21.03;;;;;;;22.68;81.57;34271.47;5103578;28;20207;-73
2021/06/19 00:40:01;;;;;;;23.23;21.67;;;;;;;22.60;82.30;36952.75;5103233;28;20207;-73
2021/06/19 00:42:27;;;;;;;21.90;20.40;;;;;;;22.61;82.09;38980.81;5103068;28;20204;-73
2021/06/19 00:44:56;;;;;;;22.00;20.27;;;;;;;22.66;81.78;40671.72;5103347;28;20654;-73
2021/06/19 00:47:22;;;;;;;20.70;19.27;;;;;;;22.69;81.86;41914.03;5103434;28;20211;-73
2021/06/19 00:49:50;;;;;;;21.37;19.97;;;;;;;22.67;81.69;42686.22;5103444;28;20210;-74
2021/06/19 00:52:16;;;;;;;20.27;18.77;;;;;;;22.73;81.52;43734.81;5103093;28;20231;-73
2021/06/19 00:54:42;;;;;;;21.23;20.00;;;;;;;22.71;81.72;44250.56;5102846;28;20231;-74
2021/06/19 00:57:10;;;;;;;21.10;19.70;;;;;;;22.70;81.93;44871.34;5103020;28;20203;-73
2021/06/19 00:59:37;;;;;;;21.67;20.37;;;;;;;22.68;82.23;45541.66;5103272;28;20199;-73
2021/06/19 01:02:04;;;;;;;19.43;18.03;;;;;;;22.79;81.68;46761.19;5102842;28;20670;-74
2021/06/19 01:04:31;;;;;;;20.30;18.77;;;;;;;22.91;81.23;47731.97;5102741;28;20715;-73
2021/06/19 01:06:59;;;;;;;19.97;17.97;;;;;;;23.03;80.73;48379.66;5103191;28;20203;-74
2021/06/19 01:09:26;;;;;;;20.70;19.13;;;;;;;22.93;80.84;48059.41;5102957;28;20237;-73
2021/06/19 01:11:52;;;;;;;19.23;17.83;;;;;;;23.13;79.96;49137.69;5102705;28;20239;-73
2021/06/19 01:14:19;;;;;;;19.20;18.00;;;;;;;23.30;79.21;49927.19;5102420;28;20284;-73
2021/06/19 01:16:48;;;;;;;19.13;17.57;;;;;;;23.48;78.12;50682.13;5103137;28;20688;-74
2021/06/19 01:19:15;;;;;;;20.30;18.67;;;;;;;23.54;78.02;50576.44;5102883;28;20695;-74
2021/06/19 01:21:42;;;;;;;20.27;18.77;;;;;;;23.62;77.41;51001.94;5102776;28;20199;-73
2021/06/19 01:24:14;;;;;;;20.43;18.77;;;;;;;23.73;77.33;51348.22;5102299;28;20208;-73
2021/06/19 01:26:43;;;;;;;20.63;17.50;;;;;;;23.80;76.32;51496.66;5102939;28;20970;-74
2021/06/19 01:29:10;;;;;;;18.17;16.73;;;;;;;23.82;76.83;51466.84;5102400;28;20727;-73
2021/06/19 01:31:38;;;;;;;19.57;17.27;;;;;;;23.61;77.73;50264.13;5102710;28;20223;-73
2021/06/19 01:34:04;;;;;;;18.90;17.60;;;;;;;23.54;78.08;50110.66;5102428;28;20623;-74
2021/06/19 01:36:31;;;;;;;20.60;18.77;;;;;;;23.52;78.03;50196.19;5102709;28;20304;-74
2021/06/19 01:38:57;;;;;;;18.53;17.27;;;;;;;23.52;77.69;50261.97;5102716;28;20213;-73
2021/06/19 01:41:25;;;;;;;16.93;15.93;;;;;;;23.56;77.60;50401.84;5103170;28;20200;-74
2021/06/19 01:44:00;;;;;;;17.63;16.20;;;;;;;23.64;77.11;50634.75;5102534;28;20238;-74
2021/06/19 01:46:26;;;;;;;17.27;16.13;;;;;;;23.63;77.03;50647.50;5102445;28;20226;-74
2021/06/19 01:48:53;;;;;;;16.93;15.83;;;;;;;23.62;77.05;50465.00;5103112;28;20207;-73
2021/06/19 01:51:19;;;;;;;17.50;16.20;;;;;;;23.67;76.83;50595.72;5102407;28;20688;-73
2021/06/19 01:53:47;;;;;;;17.50;16.23;;;;;;;23.70;76.23;50574.22;5102023;28;20488;-74
2021/06/19 01:56:14;;;;;;;16.83;15.73;;;;;;;23.72;76.25;50639.56;5102142;28;20312;-73
2021/06/19 01:58:41;;;;;;;17.20;15.93;;;;;;;23.72;76.27;50612.81;5102670;28;20214;-74
2021/06/19 02:01:10;;;;;;;17.27;16.07;;;;;;;23.65;75.74;49841.25;5102391;28;20672;-74
2021/06/19 02:03:38;;;;;;;16.93;15.83;;;;;;;23.67;76.48;50105.72;5101556;28;20208;-74
2021/06/19 02:06:05;;;;;;;16.63;15.40;;;;;;;23.66;76.76;50073.28;5103019;28;20224;-73
2021/06/19 02:08:32;;;;;;;16.37;15.17;;;;;;;23.69;76.31;50250.03;5103143;28;20300;-74
2021/06/19 02:10:59;;;;;;;16.90;15.70;;;;;;;23.63;76.39;49868.03;5103799;28;20258;-74
2021/06/19 02:13:27;;;;;;;15.87;14.97;;;;;;;23.65;76.57;50001.78;5103226;28;20195;-74
2021/06/19 02:15:56;;;;;;;15.50;14.60;;;;;;;23.65;76.38;49988.19;5103317;28;20225;-74
2021/06/19 02:18:25;;;;;;;16.30;15.10;;;;;;;23.57;76.07;49253.28;5102423;28;20246;-74
2021/06/19 02:20:53;;;;;;;16.00;15.10;;;;;;;23.62;76.12;49541.28;5103252;28;20196;-73
2021/06/19 02:23:20;;;;;;;15.03;14.13;;;;;;;23.59;76.06;49531.25;5103116;28;20773;-75
2021/06/19 02:25:48;;;;;;;16.40;14.93;;;;;;;23.60;76.41;49497.47;5106555;27;20219;-76
2021/06/19 02:28:14;;;;;;;15.43;14.40;;;;;;;23.60;75.95;49434.34;5106910;27;20207;-76
2021/06/19 02:30:43;;;;;;;15.57;14.60;;;;;;;23.54;75.84;48853.06;5106528;27;20208;-75
2021/06/19 02:33:10;;;;;;;15.30;14.27;;;;;;;23.53;75.73;48815.81;5106962;27;20220;-76
2021/06/19 02:35:39;;;;;;;15.17;14.17;;;;;;;23.54;75.91;48926.72;5107200;27;20227;-77
2021/06/19 02:38:06;;;;;;;15.20;14.30;;;;;;;23.58;75.13;48862.13;5107540;27;20211;-76
2021/06/19 02:40:33;;;;;;;15.07;14.17;;;;;;;23.62;73.94;48622.66;5106519;27;20204;-76
2021/06/19 02:43:00;;;;;;;15.43;14.23;;;;;;;23.58;75.46;48841.09;5106356;27;20530;-76
2021/06/19 02:45:27;;;;;;;15.03;14.07;;;;;;;23.59;75.66;48783.66;5107208;27;20265;-76
2021/06/19 02:47:55;;;;;;;15.27;14.23;;;;;;;23.62;75.64;49004.13;5107062;27;20245;-75
2021/06/19 02:50:25;;;;;;;14.20;13.30;;;;;;;23.55;75.48;48546.56;5106883;27;20619;-76
2021/06/19 02:52:54;;;;;;;14.33;13.30;;;;;;;23.58;75.14;48609.19;5106040;27;20221;-76
2021/06/19 02:55:24;;;;;;;14.17;13.27;;;;;;;23.55;75.51;48438.72;5106061;27;20757;-75
2021/06/19 02:57:51;;;;;;;14.60;13.53;;;;;;;23.61;74.71;48474.94;5105941;27;20666;-76
2021/06/19 03:00:19;;;;;;;13.83;12.83;;;;;;;23.51;74.40;47583.28;5105628;28;20263;-74
2021/06/19 03:02:46;;;;;;;14.63;13.63;;;;;;;23.52;75.13;47907.56;5105438;28;20207;-74
2021/06/19 03:05:15;;;;;;;14.17;13.30;;;;;;;23.52;75.11;47683.63;5105549;28;20264;-74
2021/06/19 03:07:41;;;;;;;14.87;13.77;;;;;;;23.50;74.35;47340.56;5105202;28;20211;-74
2021/06/19 03:10:12;;;;;;;14.33;13.33;;;;;;;23.45;75.22;47318.03;5105267;28;20722;-74
2021/06/19 03:12:38;;;;;;;13.63;12.63;;;;;;;23.37;75.18;46807.19;5105133;28;20226;-74
2021/06/19 03:15:06;;;;;;;15.90;13.60;;;;;;;23.42;75.42;47233.66;5105163;27;20272;-74
2021/06/19 03:17:32;;;;;;;13.97;13.07;;;;;;;23.49;74.90;47544.41;5105554;28;20223;-74
2021/06/19 03:19:59;;;;;;;14.70;13.60;;;;;;;23.51;74.81;47559.22;5105198;28;20288;-74
2021/06/19 03:22:25;;;;;;;13.30;12.20;;;;;;;23.40;73.50;46302.31;5104842;28;20203;-74
2021/06/19 03:24:52;;;;;;;13.93;13.10;;;;;;;23.43;74.48;46679.81;5104784;28;20736;-74
2021/06/19 03:27:20;;;;;;;14.67;13.37;;;;;;;23.39;72.25;45473.34;5105059;28;20253;-74
2021/06/19 03:29:46;;;;;;;13.00;12.13;;;;;;;23.48;73.75;46497.22;5104807;28;20994;-73
2021/06/19 03:32:13;;;;;;;13.40;12.43;;;;;;;23.50;71.77;45723.44;5104942;27;20223;-74
2021/06/19 03:34:41;;;;;;;14.23;12.80;;;;;;;23.51;71.84;45517.00;5105035;28;20701;-74
2021/06/19 03:37:07;;;;;;;14.40;13.30;;;;;;;23.57;71.71;45765.81;5104491;28;20211;-74
2021/06/19 03:39:35;;;;;;;13.63;12.70;;;;;;;23.63;72.44;46382.75;5104657;28;20306;-73
2021/06/19 03:42:02;;;;;;;12.97;12.10;;;;;;;23.66;73.34;46808.53;5104695;28;20196;-74
2021/06/19 03:44:29;;;;;;;13.10;12.00;;;;;;;23.59;73.00;46135.44;5104054;28;20709;-73
2021/06/19 03:46:56;;;;;;;13.47;12.47;;;;;;;23.56;72.21;45599.81;5104533;28;20239;-74
2021/06/19 03:49:23;;;;;;;13.33;12.13;;;;;;;23.57;73.04;45931.41;5104977;28;20207;-73
2021/06/19 03:51:50;;;;;;;12.30;11.47;;;;;;;23.54;73.40;45766.03;5104421;28;20255;-73
2021/06/19 03:54:16;;;;;;;13.20;11.83;;;;;;;23.51;73.70;45598.47;5104162;28;20280;-74
2021/06/19 03:56:43;;;;;;;13.60;12.47;;;;;;;23.44;72.20;44507.34;5104367;28;20250;-73
2021/06/19 03:59:10;;;;;;;13.53;12.37;;;;;;;23.44;73.49;44967.50;5104697;28;20200;-75
2021/06/19 04:01:38;;;;;;;12.27;11.37;;;;;;;23.37;73.05;44189.72;5104323;28;20214;-73
2021/06/19 04:04:04;;;;;;;11.73;10.93;;;;;;;23.36;73.57;44328.16;5103984;28;20808;-74
2021/06/19 04:06:30;;;;;;;13.20;12.30;;;;;;;23.36;73.25;44257.22;5104283;27;20232;-74
2021/06/19 04:08:57;;;;;;;13.47;12.23;;;;;;;23.34;73.50;44116.47;5104507;28;20237;-74
2021/06/19 04:11:23;;;;;;;11.83;10.90;;;;;;;23.36;73.58;44396.81;5104273;28;20215;-74
2021/06/19 04:13:49;;;;;;;12.37;11.53;;;;;;;23.38;74.14;44692.59;5103723;28;20284;-73
2021/06/19 04:16:16;;;;;;;12.60;11.60;;;;;;;23.31;71.13;43011.22;5104208;27;20272;-74
2021/06/19 04:18:43;;;;;;;11.80;10.90;;;;;;;23.24;71.68;42541.69;5103834;28;20268;-74
2021/06/19 04:21:10;;;;;;;13.80;12.70;;;;;;;23.09;72.52;41688.16;5103947;28;20628;-73
2021/06/19 04:23:36;;;;;;;15.37;13.87;;;;;;;22.83;74.20;40835.59;5103892;28;20199;-74
2021/06/19 04:26:03;;;;;;;14.30;13.10;;;;;;;22.83;74.68;41480.69;5103895;28;20219;-74
2021/06/19 04:28:31;;;;;;;14.53;13.37;;;;;;;22.98;74.24;42591.28;5103808;28;20207;-74
2021/06/19 04:30:59;;;;;;;19.53;13.57;;;;;;;23.13;74.18;43510.34;5104130;28;20214;-74
2021/06/19 04:33:26;;;;;;;15.23;13.63;;;;;;;23.04;74.44;42747.63;5103482;28;20313;-74
2021/06/19 04:35:54;;;;;;;16.80;15.47;;;;;;;22.96;75.11;42623.91;5103481;28;20227;-73
2021/06/19 04:38:20;;;;;;;19.40;15.03;;;;;;;23.02;74.83;43129.28;5103806;28;20725;-73
2021/06/19 04:40:51;;;;;;;15.63;14.13;;;;;;;23.09;75.25;43682.81;5103870;28;20275;-73
2021/06/19 04:43:24;;;;;;;17.17;15.33;;;;;;;23.17;75.08;44266.97;5103391;28;20214;-73
2021/06/19 04:45:50;;;;;;;17.70;15.90;;;;;;;23.23;74.95;44562.72;5103393;27;20231;-74
2021/06/19 04:48:17;;;;;;;15.30;13.97;;;;;;;23.23;75.14;44628.38;5103106;28;20211;-74
2021/06/19 04:50:43;;;;;;;15.97;14.40;;;;;;;23.30;75.33;45083.03;5104489;27;20212;-74
2021/06/19 04:53:12;;;;;;;15.13;14.13;;;;;;;23.39;74.74;45415.53;5103060;28;20224;-73
2021/06/19 04:55:39;;;;;;;15.23;13.97;;;;;;;23.35;74.84;45081.72;5103551;27;20295;-74
2021/06/19 04:58:05;;;;;;;15.43;14.03;;;;;;;23.36;74.89;45108.75;5103520;28;20204;-74
2021/06/19 05:00:33;;;;;;;15.27;14.03;;;;;;;23.40;75.20;45540.19;5103934;28;20218;-74
2021/06/19 05:02:59;;;;;;;14.83;13.60;;;;;;;23.40;75.58;45571.34;5102637;28;20254;-73
2021/06/19 05:05:28;;;;;;;15.23;13.80;;;;;;;23.23;76.47;44767.59;5103292;28;20230;-73
2021/06/19 05:07:54;;;;;;;14.17;13.23;;;;;;;23.34;76.74;45837.22;5103397;28;20209;-73
2021/06/19 05:10:22;;;;;;;15.17;14.13;;;;;;;23.24;77.08;45188.63;5103066;28;20691;-74
2021/06/19 05:12:49;;;;;;;15.93;14.27;;;;;;;23.11;77.97;45010.72;5102751;28;20231;-74
2021/06/19 05:15:19;;;;;;;16.83;15.07;;;;;;;23.01;77.85;44546.00;5102769;28;20223;-74
2021/06/19 05:17:45;;;;;;;16.23;14.83;;;;;;;22.99;77.67;44663.00;5103286;28;20215;-73
2021/06/19 05:20:12;;;;;;;15.93;14.77;;;;;;;23.11;77.20;45175.78;5103202;28;20621;-73
2021/06/19 05:22:38;;;;;;;14.93;13.80;;;;;;;23.12;77.35;45282.00;5102490;28;20679;-74
2021/06/19 05:25:06;;;;;;;16.27;14.77;;;;;;;23.17;77.18;45732.50;5102884;28;21052;-73
2021/06/19 05:27:35;;;;;;;15.33;14.23;;;;;;;23.22;76.54;45770.25;5123352;28;20191;-73
2021/06/19 05:30:01;;;;;;;14.80;13.57;;;;;;;23.23;76.81;45902.41;5124769;28;20191;-73
2021/06/19 05:32:27;;;;;;;15.33;13.90;;;;;;;23.29;76.77;46309.25;5128635;28;20288;-73
2021/06/19 05:34:54;;;;;;;12.67;11.50;;;;;;;23.39;75.64;46530.19;5128478;28;21259;-74
2021/06/19 05:37:20;;;;;;;12.83;11.70;;;;;;;23.43;75.55;46437.97;5111663;28;20642;-74
2021/06/19 05:39:46;;;;;;;13.70;12.37;;;;;;;23.42;75.38;46308.78;5103474;28;20204;-74
2021/06/19 05:42:13;;;;;;;13.00;11.90;;;;;;;23.44;75.10;46126.41;5102752;28;20693;-73
2021/06/19 05:44:41;;;;;;;12.63;11.53;;;;;;;23.50;74.69;46325.75;5102276;28;20234;-73
2021/06/19 05:47:07;;;;;;;14.20;11.87;;;;;;;23.60;75.21;47112.09;5103535;28;20211;-75
2021/06/19 05:49:34;;;;;;;13.83;11.60;;;;;;;23.71;74.54;47367.53;5104849;28;20214;-74
2021/06/19 05:52:00;;;;;;;11.53;10.30;;;;;;;23.77;73.55;47259.78;5103511;28;20204;-75
2021/06/19 05:54:26;;;;;;;12.17;10.57;;;;;;;23.81;73.13;46997.00;5102818;28;20280;-75
2021/06/19 05:56:53;;;;;;;11.73;10.53;;;;;;;23.87;72.78;47101.84;5102647;28;20356;-74
2021/06/19 05:59:19;;;;;;;10.17;9.13;;;;;;;23.95;72.54;47294.81;5105378;28;20215;-75
2021/06/19 06:01:47;;;;;;;10.60;9.73;;;;;;;23.91;71.47;46223.88;5107026;28;20255;-75
2021/06/19 06:04:13;;;;;;;13.50;9.60;;;;;;;23.95;71.34;46276.66;5106707;28;20256;-75
2021/06/19 06:06:40;;;;;;;10.03;9.00;;;;;;;23.95;70.79;45874.63;5106697;28;20275;-75
2021/06/19 06:09:06;;;;;;;10.43;9.43;;;;;;;23.99;70.83;45893.19;5107017;28;20257;-75
2021/06/19 06:11:32;;;;;;;10.33;9.33;;;;;;;23.97;71.43;45694.72;5106472;28;20261;-74
2021/06/19 06:13:59;;;;;;;9.57;8.57;;;;;;;23.99;70.50;45312.31;5106195;28;20808;-75
2021/06/19 06:16:25;;;;;;;10.00;9.00;;;;;;;23.94;70.66;44768.88;5106272;28;20237;-74
2021/06/19 06:18:53;;;;;;;9.23;8.47;;;;;;;24.01;71.34;45163.19;5106347;28;20215;-74
2021/06/19 06:21:19;;;;;;;10.27;8.87;;;;;;;24.10;72.00;46117.31;5106631;28;20280;-75
2021/06/19 06:23:46;;;;;;;10.00;9.03;;;;;;;24.14;71.93;46238.94;5106150;28;20203;-74
2021/06/19 06:26:13;;;;;;;10.73;8.13;;;;;;;24.21;70.78;45913.00;5105832;28;20270;-74
2021/06/19 06:28:39;;;;;;;10.70;7.23;;;;;;;24.26;69.37;45287.69;5106459;28;20209;-74
2021/06/19 06:31:06;;;;;;;8.63;6.87;;;;;;;24.30;68.70;45051.81;5106107;27;20674;-75
2021/06/19 06:33:32;;;;;;;10.13;7.07;;;;;;;24.33;68.67;44946.28;5105612;28;20227;-75
2021/06/19 06:36:00;;;;;;;8.20;7.40;;;;;;;24.35;68.68;44552.78;5105699;28;20224;-74
2021/06/19 06:38:26;;;;;;;10.60;6.50;;;;;;;24.34;68.23;44183.69;5105918;28;20681;-75
2021/06/19 06:40:53;;;;;;;7.00;6.40;;;;;;;24.33;67.70;43596.69;5106063;28;20254;-75
2021/06/19 06:43:19;;;;;;;7.10;6.53;;;;;;;24.44;68.59;44275.19;5105611;27;20200;-74
2021/06/19 06:45:46;;;;;;;6.70;6.00;;;;;;;24.47;68.23;43993.34;5105831;28;20220;-75
2021/06/19 06:48:12;;;;;;;6.87;6.20;;;;;;;24.46;67.62;43495.72;5106037;28;20241;-75
2021/06/19 06:50:39;;;;;;;6.33;5.73;;;;;;;24.52;67.70;43668.66;5106708;27;20203;-74
2021/06/19 06:53:07;;;;;;;8.50;6.30;;;;;;;24.58;68.01;43938.66;5105357;27;20637;-74
2021/06/19 06:55:33;;;;;;;6.90;5.90;;;;;;;24.68;68.12;44206.50;5106035;27;20232;-75
2021/06/19 06:58:00;;;;;;;11.53;6.50;;;;;;;24.68;66.92;43306.78;5105613;28;20250;-75
2021/06/19 07:00:26;;;;;;;6.73;6.17;;;;;;;24.69;67.26;43175.94;5105726;28;20256;-75
2021/06/19 07:02:53;;;;;;;6.60;6.00;;;;;;;24.78;68.20;43958.84;5105214;28;20203;-75
2021/06/19 07:05:20;;;;;;;6.40;5.87;;;;;;;24.82;66.99;43666.69;5105454;28;20231;-74
2021/06/19 07:07:46;;;;;;;6.47;5.87;;;;;;;24.90;67.59;44151.97;5104678;28;20256;-74
2021/06/19 07:10:15;;;;;;;6.13;5.73;;;;;;;25.00;67.58;44346.66;5104605;28;20252;-75
2021/06/19 07:12:43;;;;;;;5.83;5.33;;;;;;;24.96;66.40;43013.91;5104512;28;20211;-75
2021/06/19 07:15:11;;;;;;;6.20;5.60;;;;;;;24.96;65.34;42187.75;5105338;28;20281;-75
2021/06/19 07:17:37;;;;;;;6.20;5.70;;;;;;;24.91;64.88;41391.97;5104751;28;20366;-74
2021/06/19 07:20:05;;;;;;;6.30;5.80;;;;;;;24.98;64.48;41338.78;5104919;28;20215;-75
2021/06/19 07:22:31;;;;;;;6.57;5.93;;;;;;;25.01;64.90;41248.47;5104506;28;20200;-75
2021/06/19 07:24:58;;;;;;;6.60;6.03;;;;;;;25.05;65.88;41530.34;5104568;28;20229;-74
2021/06/19 07:27:25;;;;;;;5.77;5.27;;;;;;;25.14;64.07;41331.56;5104547;28;20279;-75
2021/06/19 07:29:52;;;;;;;5.93;5.33;;;;;;;25.25;64.23;41784.13;5104635;28;20237;-74
2021/06/19 07:32:18;;;;;;;6.27;5.60;;;;;;;25.28;64.30;41383.84;5104247;28;20726;-74
2021/06/19 07:34:44;;;;;;;5.37;4.90;;;;;;;25.31;63.68;40809.44;5104152;28;20223;-74
2021/06/19 07:37:11;;;;;;;5.60;5.03;;;;;;;25.30;62.31;39803.25;5104593;28;20206;-75
2021/06/19 07:39:37;;;;;;;7.77;4.87;;;;;;;25.27;63.02;39253.44;5104696;28;20198;-74
2021/06/19 07:42:04;;;;;;;5.27;4.23;;;;;;;25.29;61.26;38284.31;5104455;28;20260;-74
2021/06/19 07:44:32;;;;;;;5.00;4.53;;;;;;;25.39;62.03;38979.78;5105376;27;20620;-75
2021/06/19 07:47:00;;;;;;;4.67;4.27;;;;;;;25.30;61.86;37763.78;5105519;27;20258;-75
2021/06/19 07:49:26;;;;;;;4.97;4.47;;;;;;;25.39;62.78;38487.69;5105028;27;20694;-74
2021/06/19 07:51:53;;;;;;;5.97;5.40;;;;;;;25.38;62.72;38187.41;5105174;27;20215;-73
2021/06/19 07:54:20;;;;;;;6.37;5.07;;;;;;;25.43;61.94;37793.47;5105614;27;20287;-74
2021/06/19 07:56:47;;;;;;;5.23;4.73;;;;;;;25.44;61.52;37289.00;5105472;27;20257;-75
2021/06/19 07:59:14;;;;;;;5.10;4.70;;;;;;;25.53;63.30;38423.47;5105500;27;20206;-74
2021/06/19 08:01:41;;;;;;;5.57;5.07;;;;;;;25.53;62.61;37839.59;5106258;27;20205;-76
2021/06/19 08:04:08;;;;;;;5.53;4.93;;;;;;;25.46;61.76;36390.38;5104718;27;20260;-75
2021/06/19 08:06:34;;;;;;;5.90;5.23;;;;;;;25.43;62.30;36264.84;5105215;27;20223;-74
2021/06/19 08:09:01;;;;;;;5.83;5.23;;;;;;;25.51;62.50;36769.75;5104072;28;20601;-75
2021/06/19 08:11:27;;;;;;;6.53;5.40;;;;;;;25.52;63.00;36707.56;5104707;28;20218;-75
2021/06/19 08:13:54;;;;;;;5.70;5.30;;;;;;;25.58;63.62;37155.47;5103852;28;20219;-74
2021/06/19 08:16:21;;;;;;;7.00;6.33;;;;;;;25.59;62.68;36640.75;5104644;27;20611;-74
2021/06/19 08:18:49;;;;;;;6.60;6.00;;;;;;;25.71;64.04;37619.28;5103889;28;20641;-75
2021/06/19 08:21:15;;;;;;;6.60;6.00;;;;;;;25.76;63.52;37422.56;5103848;28;20214;-74
2021/06/19 08:23:42;;;;;;;6.70;6.10;;;;;;;25.87;62.99;37619.03;4396152;28;10000726;-74
2021/06/19 08:26:08;;;;;;;5.83;5.33;;;;;;;25.83;61.53;35963.81;5101497;28;20229;-75
2021/06/19 08:28:35;;;;;;;5.67;5.17;;;;;;;25.87;61.57;36005.84;5100972;28;20207;-74
2021/06/19 08:31:02;;;;;;;5.47;4.87;;;;;;;26.00;62.89;37084.91;5100823;28;20623;-74
2021/06/19 08:33:28;;;;;;;6.03;5.40;;;;;;;26.01;61.10;35922.31;5100694;28;20222;-74
2021/06/19 08:35:56;;;;;;;6.20;5.60;;;;;;;25.91;61.62;35066.00;5101441;28;20755;-75
2021/06/19 08:38:22;;;;;;;5.70;5.20;;;;;;;25.85;59.69;33305.50;5100770;27;20210;-75
2021/06/19 08:40:49;;;;;;;5.53;5.03;;;;;;;25.90;60.24;33610.94;5100882;28;20682;-74
2021/06/19 08:43:16;;;;;;;5.93;4.83;;;;;;;25.97;59.46;33291.28;5100891;27;20207;-76
2021/06/19 08:45:44;;;;;;;7.73;4.40;;;;;;;25.99;59.16;32677.03;5100534;28;20227;-74
2021/06/19 08:48:10;;;;;;;4.97;4.47;;;;;;;26.06;59.21;32980.66;5100497;28;21009;-74
2021/06/19 08:50:39;;;;;;;4.80;4.40;;;;;;;26.10;59.54;32933.31;5101107;28;20624;-75
2021/06/19 08:53:07;;;;;;;6.53;4.00;;;;;;;26.18;59.99;33369.19;5100814;28;20210;-75
2021/06/19 08:55:33;;;;;;;5.27;4.77;;;;;;;26.25;59.69;33402.28;5100578;28;20547;-74
2021/06/19 08:58:00;;;;;;;4.23;3.93;;;;;;;26.32;58.43;32735.09;5100372;28;20209;-74
2021/06/19 09:00:26;;;;;;;10.63;3.77;;;;;;;26.32;58.20;31925.03;5100602;28;20260;-75
2021/06/19 09:02:53;;;;;;;3.50;3.20;;;;;;;26.40;57.87;31973.75;5100811;28;20279;-74
2021/06/19 09:05:26;;;;;;;3.17;2.90;;;;;;;26.39;56.96;30908.00;5100590;28;20283;-75
2021/06/19 09:07:54;;;;;;;2.90;2.70;;;;;;;26.40;56.09;30069.28;5100836;28;20211;-75
2021/06/19 09:10:28;;;;;;;3.77;2.83;;;;;;;26.43;55.24;29374.03;5100280;28;20207;-74
2021/06/19 09:12:56;;;;;;;3.40;3.10;;;;;;;26.38;54.55;28091.13;5100068;28;20203;-74
2021/06/19 09:15:22;;;;;;;2.97;2.77;;;;;;;26.44;54.76;28286.06;5100408;28;20288;-74
2021/06/19 09:18:01;;;;;;;3.40;2.63;;;;;;;26.49;55.05;28057.53;5100270;28;20584;-74
2021/06/19 09:20:41;;;;;;;2.87;2.77;;;;;;;26.66;56.54;29641.06;5100409;28;20203;-74
2021/06/19 09:23:09;;;;;;;3.17;2.87;;;;;;;26.68;54.78;28374.59;5098819;28;20243;-74
2021/06/19 09:25:36;;;;;;;4.27;3.97;;;;;;;26.78;57.95;30305.28;5099815;28;20253;-75
2021/06/19 09:28:06;;;;;;;3.60;3.40;;;;;;;26.89;55.05;29521.72;5099710;28;20215;-74
2021/06/19 09:30:32;;;;;;;4.13;2.80;;;;;;;26.96;53.24;28285.78;5100134;28;20211;-74
2021/06/19 09:33:00;;;;;;;3.10;2.87;;;;;;;27.11;55.59;29680.25;5100268;28;20202;-75
2021/06/19 09:35:29;;;;;;;4.40;4.10;;;;;;;27.01;56.94;29243.31;5106678;27;20233;-74
2021/06/19 09:37:58;;;;;;;3.97;3.67;;;;;;;26.90;56.23;27943.38;5106739;27;20211;-74
2021/06/19 09:40:28;;;;;;;4.13;3.73;;;;;;;27.01;56.96;28654.06;5106848;27;20202;-75
2021/06/19 09:43:10;;;;;;;3.87;3.57;;;;;;;27.17;56.65;29246.44;5106416;27;20205;-74
2021/06/19 09:45:37;;;;;;;4.67;4.20;;;;;;;27.03;57.46;27949.91;5107109;28;20602;-74
2021/06/19 09:48:04;;;;;;;5.33;4.00;;;;;;;26.86;56.00;25575.03;5106345;28;20207;-75
2021/06/19 09:50:31;;;;;;;3.90;3.60;;;;;;;26.82;55.18;24802.84;5106258;27;20264;-73
2021/06/19 09:53:12;;;;;;;3.63;3.40;;;;;;;26.88;56.82;25594.38;5106752;27;20210;-75
2021/06/19 09:55:41;;;;;;;4.23;3.90;;;;;;;26.88;57.02;25523.16;5106667;27;20237;-74
2021/06/19 09:58:09;;;;;;;4.03;3.63;;;;;;;27.04;56.55;26327.16;5107196;27;20207;-74
2021/06/19 10:00:39;;;;;;;4.23;3.50;;;;;;;27.15;55.83;26108.81;5106701;28;20214;-75
2021/06/19 10:03:05;;;;;;;3.50;3.10;;;;;;;27.16;55.63;25643.53;5106584;27;20198;-75
2021/06/19 10:05:32;;;;;;;4.47;3.70;;;;;;;27.24;54.98;25234.31;5106770;28;20358;-75
2021/06/19 10:07:59;;;;;;;4.03;3.60;;;;;;;27.31;54.90;25327.22;5106615;28;20206;-75
2021/06/19 10:10:26;;;;;;;3.87;3.57;;;;;;;27.38;55.14;25419.41;5106762;27;20259;-75
2021/06/19 10:12:53;;;;;;;4.33;3.93;;;;;;;27.19;52.93;22398.28;5106345;27;20260;-74
2021/06/19 10:15:21;;;;;;;3.00;2.80;;;;;;;27.18;52.60;21938.00;5106054;27;20226;-74
2021/06/19 10:17:49;;;;;;;4.70;2.50;;;;;;;27.10;50.09;19095.72;5106033;27;20215;-75
2021/06/19 10:20:17;;;;;;;4.20;3.10;;;;;;;27.32;52.43;21654.59;5106495;27;20798;-74
2021/06/19 10:22:45;;;;;;;2.97;2.73;;;;;;;27.18;52.24;19996.50;5106033;27;20218;-75
2021/06/19 10:25:15;;;;;;;3.63;2.53;;;;;;;27.15;50.00;18375.53;5106427;27;20275;-74
2021/06/19 10:27:46;;;;;;;2.20;1.83;;;;;;;27.08;48.55;16318.47;5106088;27;20250;-75
2021/06/19 10:30:16;;;;;;;5.43;2.30;;;;;;;27.24;49.86;17990.13;5105959;28;20239;-75
2021/06/19 10:32:46;;;;;;;2.10;2.00;;;;;;;27.39;49.61;18501.91;5105317;28;20539;-74
2021/06/19 10:35:15;;;;;;;2.03;1.73;;;;;;;27.43;47.73;17195.63;5106500;27;20279;-75
2021/06/19 10:37:42;;;;;;;2.77;2.00;;;;;;;27.55;48.33;17606.44;5106518;27;20283;-74
2021/06/19 10:40:17;;;;;;;1.80;1.70;;;;;;;27.66;47.15;17124.25;5106514;27;20214;-75
2021/06/19 10:42:44;;;;;;;3.37;2.10;;;;;;;27.77;47.34;17492.81;5105689;28;20214;-75
2021/06/19 10:45:20;;;;;;;1.90;1.80;;;;;;;27.64;48.90;16643.00;5103843;27;20234;-74
2021/06/19 10:48:04;;;;;;;3.23;1.97;;;;;;;27.81;48.25;17399.41;5103102;28;20629;-75
2021/06/19 10:50:31;;;;;;;2.23;2.03;;;;;;;27.58;47.33;14212.94;5102921;28;20468;-75
2021/06/19 10:53:06;;;;;;;2.03;1.93;;;;;;;27.73;47.73;15437.81;5102351;28;20217;-75
2021/06/19 10:55:34;;;;;;;4.70;1.83;;;;;;;27.82;48.10;15744.97;5102448;28;20394;-74
2021/06/19 10:58:18;;;;;;;3.70;1.90;;;;;;;27.90;45.93;14726.03;5102518;28;20222;-74
2021/06/19 11:00:47;;;;;;;2.33;1.57;;;;;;;27.71;45.78;12440.28;5102619;28;20253;-74
2021/06/19 11:03:16;;;;;;;1.67;1.53;;;;;;;27.90;46.09;13683.75;5102264;27;20211;-74
2021/06/19 11:05:54;;;;;;;1.40;1.30;;;;;;;27.85;44.74;12094.72;5102592;28;20234;-74
2021/06/19 11:08:21;;;;;;;3.90;1.80;;;;;;;27.96;47.15;13698.38;5102718;28;20347;-75
2021/06/19 11:10:53;;;;;;;2.03;1.80;;;;;;;28.10;47.35;14713.28;5102262;28;20633;-74
2021/06/19 11:13:42;;;;;;;2.20;1.40;;;;;;;27.95;45.13;11779.44;5103451;28;20259;-75
2021/06/19 11:16:51;;;;;;;1.40;1.30;;;;;;;27.92;46.14;11728.97;5103459;28;20574;-75
2021/06/19 11:19:44;;;;;;;2.10;1.63;;;;;;;28.12;44.83;12022.50;5103982;28;20239;-74
2021/06/19 11:22:31;;;;;;;2.83;1.60;;;;;;;28.06;44.29;10396.66;5101338;28;20213;-74
2021/06/19 11:25:35;;;;;;;2.10;1.90;;;;;;;28.16;44.72;10865.81;5102636;28;20238;-74
2021/06/19 11:28:04;;;;;;;1.80;1.70;;;;;;;28.41;44.85;12444.31;5102114;28;20253;-74